createdAt,value
2022-09-06T00:01:16.063Z,98189.59
2022-09-06T00:03:42.961Z,98191.75
2022-09-06T00:06:19.468Z,98190.41
2022-09-06T00:08:47.808Z,98194.97
2022-09-06T00:11:15.398Z,98203.06
2022-09-06T00:13:42.644Z,98195.78
2022-09-06T00:16:12.991Z,98190.91
2022-09-06T00:18:39.729Z,98186.34
2022-09-06T00:21:16.066Z,98186.84
2022-09-06T00:23:42.641Z,98191.75
2022-09-06T00:26:09.187Z,98189.59
2022-09-06T00:28:35.747Z,98195.56
2022-09-06T00:31:20.425Z,98203.09
2022-09-06T00:33:47.008Z,98196.38
2022-09-06T00:36:14.228Z,98216.03
2022-09-06T00:38:41.629Z,98208.22
2022-09-06T00:41:10.553Z,98241.66
2022-09-06T00:43:37.538Z,98359.25
2022-09-06T00:46:06.001Z,98352.03
2022-09-06T00:48:33.238Z,98347.94
2022-09-06T00:51:02.875Z,98372.53
2022-09-06T00:53:31.002Z,98375.28
2022-09-06T00:55:57.877Z,98389.09
2022-09-06T00:58:25.398Z,98380.16
2022-09-06T01:00:51.964Z,98383.41
2022-09-06T01:03:19.520Z,98368.81
2022-09-06T01:06:10.094Z,98382.31
2022-09-06T01:08:48.831Z,98373.94
2022-09-06T01:11:46.408Z,98382.34
2022-09-06T01:14:51.556Z,98392.56
2022-09-06T01:17:41.926Z,98381.25
2022-09-06T01:20:34.330Z,98389.88
2022-09-06T01:23:28.823Z,98383.84
2022-09-06T01:26:20.649Z,98362.16
2022-09-06T01:28:48.310Z,98332.41
2022-09-06T01:31:48.297Z,98292.41
2022-09-06T01:34:24.182Z,98295.59
2022-09-06T01:37:09.474Z,98296.97
2022-09-06T01:39:37.898Z,98310.91
2022-09-06T01:42:12.116Z,98295.84
2022-09-06T01:44:43.758Z,98313.16
2022-09-06T01:47:35.495Z,98315.59
2022-09-06T01:50:16.869Z,98318.56
2022-09-06T01:53:04.034Z,98318.03
2022-09-06T01:55:39.204Z,98294.81
2022-09-06T01:58:05.614Z,98295.91
2022-09-06T02:00:40.610Z,98296.16
2022-09-06T02:03:31.577Z,98301.84
2022-09-06T02:06:09.391Z,98307.78
2022-09-06T02:08:41.754Z,98315.91
2022-09-06T02:11:09.370Z,98294.84
2022-09-06T02:13:49.916Z,98213.63
2022-09-06T02:16:21.385Z,98264.88
2022-09-06T02:18:53.972Z,98272.44
2022-09-06T02:21:30.342Z,98266.75
2022-09-06T02:24:00.537Z,98263.78
2022-09-06T02:26:30.503Z,98270.53
2022-09-06T02:28:57.601Z,98260.31
2022-09-06T02:31:30.354Z,98263.53
2022-09-06T02:33:57.557Z,98270.00
2022-09-06T02:36:24.544Z,98273.78
2022-09-06T02:38:51.654Z,98270.00
2022-09-06T02:41:22.613Z,98274.84
2022-09-06T02:43:49.213Z,98279.72
2022-09-06T02:46:16.601Z,98276.22
2022-09-06T02:48:43.143Z,98272.69
2022-09-06T02:51:10.061Z,98274.03
2022-09-06T02:53:36.721Z,98257.31
2022-09-06T02:56:03.692Z,98270.00
2022-09-06T02:58:30.251Z,98240.84
2022-09-06T03:00:56.814Z,98272.16
2022-09-06T03:03:23.734Z,98270.53
2022-09-06T03:05:53.288Z,98257.59
2022-09-06T03:08:21.474Z,98244.66
2022-09-06T03:10:56.183Z,98244.09
2022-09-06T03:13:23.877Z,98240.59
2022-09-06T03:15:52.536Z,98243.00
2022-09-06T03:18:19.416Z,98234.38
2022-09-06T03:20:46.058Z,98230.34
2022-09-06T03:23:13.537Z,98213.34
2022-09-06T03:25:40.056Z,98225.22
2022-09-06T03:28:06.523Z,98217.13
2022-09-06T03:30:33.065Z,98217.66
2022-09-06T03:33:02.584Z,98210.38
2022-09-06T03:35:29.577Z,98209.56
2022-09-06T03:37:56.049Z,98218.72
2022-09-06T03:40:22.604Z,98223.03
2022-09-06T03:42:49.033Z,98232.47
2022-09-06T03:45:16.741Z,98222.50
2022-09-06T03:47:43.151Z,98222.50
2022-09-06T03:50:09.914Z,98211.44
2022-09-06T03:52:36.406Z,98191.69
2022-09-06T03:55:03.754Z,98216.81
2022-09-06T03:57:30.177Z,98210.06
2022-09-06T03:59:56.683Z,98216.28
2022-09-06T04:02:23.241Z,98217.91
2022-09-06T04:04:49.728Z,98217.63
2022-09-06T04:07:16.129Z,98221.38
2022-09-06T04:09:42.621Z,98212.19
2022-09-06T04:12:09.167Z,98223.22
2022-09-06T04:14:35.572Z,98226.69
2022-09-06T04:17:02.042Z,98214.31
2022-09-06T04:19:28.519Z,98223.13
2022-09-06T04:21:55.246Z,98220.97
2022-09-06T04:24:21.659Z,98213.94
2022-09-06T04:26:48.174Z,98216.38
2022-09-06T04:29:14.608Z,98216.94
2022-09-06T04:31:41.123Z,98211.03
2022-09-06T04:34:07.763Z,98216.44
2022-09-06T04:36:34.393Z,98220.72
2022-09-06T04:39:00.810Z,98221.78
2022-09-06T04:41:27.264Z,98202.56
2022-09-06T04:43:54.032Z,98223.91
2022-09-06T04:46:25.167Z,98226.63
2022-09-06T04:48:53.605Z,98230.69
2022-09-06T04:51:21.449Z,98232.00
2022-09-06T04:53:48.362Z,98235.19
2022-09-06T04:56:18.082Z,98232.22
2022-09-06T04:58:46.508Z,98231.97
2022-09-06T05:01:13.498Z,98229.50
2022-09-06T05:03:40.069Z,98235.44
2022-09-06T05:06:09.294Z,98231.69
2022-09-06T05:08:42.335Z,98235.22
2022-09-06T05:11:11.041Z,98231.97
2022-09-06T05:13:37.773Z,98237.59
2022-09-06T05:16:06.880Z,98231.94
2022-09-06T05:18:33.630Z,98239.19
2022-09-06T05:21:00.722Z,98237.78
2022-09-06T05:23:28.035Z,98240.94
2022-09-06T05:25:54.500Z,98251.47
2022-09-06T05:28:21.490Z,98249.91
2022-09-06T05:30:47.954Z,98245.88
2022-09-06T05:33:20.202Z,98253.50
2022-09-06T05:35:46.674Z,98251.66
2022-09-06T05:38:13.094Z,98264.38
2022-09-06T05:40:39.562Z,98271.94
2022-09-06T05:43:06.174Z,98273.03
2022-09-06T05:45:32.680Z,98278.44
2022-09-06T05:47:59.193Z,98274.38
2022-09-06T05:50:25.696Z,98277.84
2022-09-06T05:52:53.950Z,98250.84
2022-09-06T05:55:20.405Z,98267.00
2022-09-06T05:57:46.804Z,98263.88
2022-09-06T06:00:13.701Z,98265.09
2022-09-06T06:02:40.413Z,98261.38
2022-09-06T06:05:07.914Z,98263.56
2022-09-06T06:07:34.630Z,98270.28
2022-09-06T06:10:01.102Z,98209.56
2022-09-06T06:12:27.525Z,98271.63
2022-09-06T06:14:54.502Z,98281.03
2022-09-06T06:17:20.993Z,98274.22
2022-09-06T06:19:47.511Z,98283.34
2022-09-06T06:22:14.006Z,98284.28
2022-09-06T06:24:40.472Z,98221.56
2022-09-06T06:27:07.531Z,98279.06
2022-09-06T06:29:33.992Z,98280.88
2022-09-06T06:32:00.484Z,98274.19
2022-09-06T06:34:27.024Z,98281.81
2022-09-06T06:36:53.457Z,98284.03
2022-09-06T06:39:20.016Z,98280.88
2022-09-06T06:41:47.813Z,98285.53
2022-09-06T06:44:40.309Z,98273.41
2022-09-06T06:47:07.091Z,98280.50
2022-09-06T06:49:33.654Z,98271.88
2022-09-06T06:52:00.160Z,98273.25
2022-09-06T06:54:26.685Z,98274.59
2022-09-06T06:56:53.098Z,98266.50
2022-09-06T06:59:20.502Z,98270.25
2022-09-06T07:01:47.056Z,98272.91
2022-09-06T07:04:14.186Z,98258.78
2022-09-06T07:12:29.465Z,98269.56
2022-09-06T07:14:55.892Z,98263.44
2022-09-06T07:17:22.310Z,98271.00
2022-09-06T07:22:37.034Z,98271.88
2022-09-06T07:25:05.042Z,98270.50
2022-09-06T07:27:47.745Z,98279.03
2022-09-06T07:30:15.323Z,98263.75
2022-09-06T07:32:41.841Z,98271.25
2022-09-06T07:35:08.887Z,98264.41
2022-09-06T07:37:35.405Z,98262.97
2022-09-06T07:40:03.180Z,98203.88
2022-09-06T07:42:36.485Z,98272.16
2022-09-06T07:45:04.547Z,98265.59
2022-09-06T07:55:32.994Z,98282.72
2022-09-06T07:57:59.441Z,98277.03
2022-09-06T08:00:26.298Z,98280.09
2022-09-06T08:02:52.886Z,98286.41
2022-09-06T08:10:52.329Z,98288.44
2022-09-06T08:13:18.784Z,98279.53
2022-09-06T08:15:45.290Z,98276.94
2022-09-06T08:18:11.973Z,98272.66
2022-09-06T08:20:38.456Z,98272.22
2022-09-06T08:23:12.402Z,98264.91
2022-09-06T08:25:38.819Z,98268.50
2022-09-06T08:28:05.316Z,98273.44
2022-09-06T08:30:32.984Z,98272.66
2022-09-06T08:32:59.727Z,98275.06
2022-09-06T08:35:26.185Z,98262.88
2022-09-06T08:37:52.857Z,98267.38
2022-09-06T08:40:22.379Z,98270.22
2022-09-06T08:42:48.878Z,98270.84
2022-09-06T08:45:19.315Z,98278.53
2022-09-06T08:47:45.795Z,98267.25
2022-09-06T08:50:12.359Z,98274.00
2022-09-06T08:53:17.893Z,98269.00
2022-09-06T08:55:54.199Z,98269.47
2022-09-06T08:58:35.746Z,98268.31
2022-09-06T09:01:11.346Z,98265.91
2022-09-06T09:03:39.884Z,98276.47
2022-09-06T09:06:09.232Z,98267.47
2022-09-06T09:08:47.982Z,98259.81
2022-09-06T09:11:17.910Z,98259.47
2022-09-06T09:13:55.625Z,98256.13
2022-09-06T09:16:22.867Z,98256.88
2022-09-06T09:18:53.666Z,98250.84
2022-09-06T09:21:28.065Z,98255.19
2022-09-06T09:24:01.982Z,98254.22
2022-09-06T09:26:35.107Z,98259.22
2022-09-06T09:29:03.874Z,98247.06
2022-09-06T09:31:36.083Z,98251.09
2022-09-06T09:34:04.862Z,98248.81
2022-09-06T09:36:32.865Z,98237.44
2022-09-06T09:39:00.002Z,98242.00
2022-09-06T09:41:32.861Z,98238.06
2022-09-06T09:44:05.104Z,98240.84
2022-09-06T09:46:36.826Z,98231.72
2022-09-06T09:49:11.171Z,98231.16
2022-09-06T09:51:43.341Z,98227.66
2022-09-06T09:54:29.465Z,98226.56
2022-09-06T09:56:56.871Z,98221.28
2022-09-06T09:59:37.930Z,98215.31
2022-09-06T10:02:41.265Z,98211.66
2022-09-06T10:05:13.588Z,98213.00
2022-09-06T10:07:51.945Z,98224.00
2022-09-06T10:10:33.398Z,98222.13
2022-09-06T10:13:07.644Z,98209.00
2022-09-06T10:15:40.031Z,98218.22
2022-09-06T10:18:06.692Z,98209.69
2022-09-06T10:20:56.423Z,98222.47
2022-09-06T10:26:53.742Z,98198.81
2022-09-06T10:29:34.781Z,98205.06
2022-09-06T10:32:32.610Z,98196.31
2022-09-06T10:35:13.096Z,98201.19
2022-09-06T10:37:47.273Z,98204.50
2022-09-06T10:40:30.409Z,98203.00
2022-09-06T10:42:59.387Z,98197.75
2022-09-06T10:45:59.590Z,98191.78
2022-09-06T10:48:44.636Z,98192.97
2022-09-06T10:51:21.787Z,98182.25
2022-09-06T10:54:07.864Z,98179.84
2022-09-06T10:56:49.973Z,98183.03
2022-09-06T10:59:41.966Z,98183.16
2022-09-06T11:02:42.927Z,98186.56
2022-09-06T11:05:38.301Z,98181.94
2022-09-06T11:11:08.045Z,98167.69
2022-09-06T11:13:34.679Z,98168.19
2022-09-06T11:16:27.085Z,98165.09
2022-09-06T11:19:02.656Z,98171.16
2022-09-06T11:21:48.350Z,98159.34
2022-09-06T11:24:22.263Z,98156.22
2022-09-06T11:27:13.633Z,98165.03
2022-09-06T11:29:45.106Z,98166.47
2022-09-06T11:32:50.396Z,98162.81
2022-09-06T11:35:28.436Z,98160.13
2022-09-06T11:38:05.961Z,98163.56
2022-09-06T11:40:47.722Z,98160.56
2022-09-06T11:43:38.768Z,98159.47
2022-09-06T11:46:05.269Z,98151.97
2022-09-06T11:48:36.419Z,98161.56
2022-09-06T11:51:11.088Z,98163.56
2022-09-06T11:54:06.214Z,98156.16
2022-09-06T11:56:59.935Z,98155.47
2022-09-06T11:59:34.173Z,98147.25
2022-09-06T12:02:03.998Z,98142.97
2022-09-06T12:05:00.449Z,98145.34
2022-09-06T12:07:31.786Z,98141.50
2022-09-06T12:10:01.976Z,98144.75
2022-09-06T12:12:50.754Z,98144.75
2022-09-06T12:15:30.184Z,98142.22
2022-09-06T12:17:59.000Z,98139.31
2022-09-06T12:20:47.668Z,98136.78
2022-09-06T12:23:35.712Z,98132.66
2022-09-06T12:26:04.519Z,98129.22
2022-09-06T12:28:49.816Z,98126.25
2022-09-06T12:31:36.699Z,98121.28
2022-09-06T12:34:14.441Z,98114.88
2022-09-06T12:36:57.396Z,98126.25
2022-09-06T12:39:24.345Z,98100.88
2022-09-06T12:41:56.110Z,98118.78
2022-09-06T12:44:36.214Z,98116.13
2022-09-06T12:47:06.840Z,98101.25
2022-09-06T12:49:33.566Z,98112.50
2022-09-06T12:52:29.494Z,98097.75
2022-09-06T12:54:55.932Z,98103.44
2022-09-06T12:57:24.900Z,98102.69
2022-09-06T12:59:56.615Z,98102.38
2022-09-06T13:02:26.196Z,98099.31
2022-09-06T13:05:02.790Z,98092.56
2022-09-06T13:07:31.622Z,98076.16
2022-09-06T13:09:58.405Z,98085.56
2022-09-06T13:12:33.370Z,98089.72
2022-09-06T13:15:19.536Z,98087.50
2022-09-06T13:17:46.414Z,98082.88
2022-09-06T13:20:22.701Z,98072.19
2022-09-06T13:22:51.300Z,98083.25
2022-09-06T13:25:21.055Z,98074.31
2022-09-06T13:27:50.883Z,98070.88
2022-09-06T13:30:34.096Z,98073.19
2022-09-06T13:33:02.134Z,98067.13
2022-09-06T13:35:31.624Z,98063.44
2022-09-06T13:38:43.070Z,98057.50
2022-09-06T13:41:24.615Z,98067.75
2022-09-06T13:44:04.225Z,98061.22
2022-09-06T13:46:32.462Z,98062.81
2022-09-06T13:48:59.271Z,98058.28
2022-09-06T13:51:28.396Z,98053.69
2022-09-06T13:54:12.854Z,98054.28
2022-09-06T13:56:40.949Z,98039.03
2022-09-06T13:59:11.686Z,98041.44
2022-09-06T14:01:40.208Z,98040.53
2022-09-06T14:04:07.262Z,98032.53
2022-09-06T14:06:36.928Z,98038.91
2022-09-06T14:09:07.455Z,98031.44
2022-09-06T14:11:34.870Z,98033.91
2022-09-06T14:14:01.309Z,98020.72
2022-09-06T14:16:27.734Z,98022.38
2022-09-06T14:18:54.266Z,98022.09
2022-09-06T14:21:20.690Z,98017.53
2022-09-06T14:23:51.367Z,98017.78
2022-09-06T14:26:19.036Z,98013.97
2022-09-06T14:28:45.656Z,98005.88
2022-09-06T14:31:15.209Z,98000.75
2022-09-06T14:33:42.125Z,98006.59
2022-09-06T14:36:10.579Z,98008.03
2022-09-06T14:38:38.358Z,97988.41
2022-09-06T14:41:05.548Z,97997.72
2022-09-06T14:43:32.798Z,97997.91
2022-09-06T14:46:14.199Z,97999.66
2022-09-06T14:48:42.759Z,97987.84
2022-09-06T14:51:14.221Z,97994.91
2022-09-06T14:53:42.319Z,97995.91
2022-09-06T14:56:10.173Z,97986.41
2022-09-06T14:58:38.381Z,97994.84
2022-09-06T15:01:13.100Z,98002.28
2022-09-06T15:03:48.821Z,98004.88
2022-09-06T15:06:16.353Z,98010.41
2022-09-06T15:08:43.238Z,98023.06
2022-09-06T15:11:10.041Z,98018.88
2022-09-06T15:13:37.486Z,98013.84
2022-09-06T15:16:05.815Z,98011.56
2022-09-06T15:18:33.189Z,98013.56
2022-09-06T15:21:09.698Z,98011.97
2022-09-06T15:23:36.720Z,97998.09
2022-09-06T15:26:03.428Z,97994.44
2022-09-06T15:28:29.833Z,97991.22
2022-09-06T15:30:56.300Z,97995.78
2022-09-06T15:33:22.892Z,97986.69
2022-09-06T15:35:57.206Z,97987.41
2022-09-06T15:38:23.898Z,97977.59
2022-09-06T15:40:50.816Z,97987.59
2022-09-06T15:43:17.315Z,97988.28
2022-09-06T15:45:49.247Z,97981.91
2022-09-06T15:48:17.377Z,97973.47
2022-09-06T15:50:51.393Z,97984.97
2022-09-06T15:53:19.625Z,97978.72
2022-09-06T15:56:12.380Z,97975.06
2022-09-06T15:58:39.080Z,97981.16
2022-09-06T16:01:09.272Z,97979.28
2022-09-06T16:03:38.566Z,97980.59
2022-09-06T16:08:55.169Z,97983.59
2022-09-06T16:11:21.741Z,97982.06
2022-09-06T16:13:48.877Z,97986.66
2022-09-06T16:16:16.682Z,97974.75
2022-09-06T16:18:46.388Z,97979.44
2022-09-06T16:21:23.769Z,97968.41
2022-09-06T16:23:53.495Z,97971.38
2022-09-06T16:26:21.748Z,97974.06
2022-09-06T16:28:50.231Z,97969.25
2022-09-06T16:31:17.891Z,97964.78
2022-09-06T16:33:45.698Z,97960.69
2022-09-06T16:36:12.896Z,97959.75
2022-09-06T16:38:40.050Z,97955.50
2022-09-06T16:41:14.495Z,97959.22
2022-09-06T16:43:41.301Z,97952.63
2022-09-06T16:46:08.267Z,97944.53
2022-09-06T16:48:34.944Z,97954.00
2022-09-06T16:51:15.701Z,97951.81
2022-09-06T16:53:44.300Z,97953.13
2022-09-06T16:56:12.519Z,97946.97
2022-09-06T16:58:41.991Z,97953.06
2022-09-06T17:01:10.013Z,97960.53
2022-09-06T17:03:37.436Z,97961.22
2022-09-06T17:06:04.337Z,97961.50
2022-09-06T17:08:36.351Z,97966.97
2022-09-06T17:11:05.320Z,97964.25
2022-09-06T17:13:32.098Z,97957.66
2022-09-06T17:16:21.915Z,97962.16
2022-09-06T17:18:49.420Z,97970.38
2022-09-06T17:21:15.851Z,97960.88
2022-09-06T17:23:42.381Z,97966.69
2022-09-06T17:26:09.075Z,97968.28
2022-09-06T17:28:37.181Z,97963.50
2022-09-06T17:31:05.370Z,97955.50
2022-09-06T17:33:33.014Z,97957.97
2022-09-06T17:36:12.293Z,97965.88
2022-09-06T17:38:40.027Z,97963.94
2022-09-06T17:41:07.160Z,97956.56
2022-09-06T17:43:36.263Z,97954.66
2022-09-06T17:46:03.827Z,97963.31
2022-09-06T17:48:30.415Z,97959.13
2022-09-06T17:51:05.021Z,97957.25
2022-09-06T17:53:31.835Z,97961.00
2022-09-06T17:55:58.462Z,97962.28
2022-09-06T17:58:24.970Z,97956.59
2022-09-06T18:00:51.567Z,97959.91
2022-09-06T18:03:18.038Z,97965.63
2022-09-06T18:05:45.183Z,97965.38
2022-09-06T18:08:11.753Z,97962.50
2022-09-06T18:10:38.647Z,97975.19
2022-09-06T18:13:06.121Z,97971.56
2022-09-06T18:15:37.974Z,97962.44
2022-09-06T18:18:04.662Z,97965.97
2022-09-06T18:20:31.478Z,97965.59
2022-09-06T18:22:58.311Z,97973.19
2022-09-06T18:25:24.885Z,97979.09
2022-09-06T18:27:51.368Z,97979.72
2022-09-06T18:30:17.925Z,97978.25
2022-09-06T18:32:44.762Z,97978.69
2022-09-06T18:35:11.471Z,97980.91
2022-09-06T18:37:38.546Z,97975.28
2022-09-06T18:40:06.071Z,97974.28
2022-09-06T18:42:33.340Z,97978.75
2022-09-06T18:44:59.816Z,97937.44
2022-09-06T18:47:26.278Z,97981.94
2022-09-06T18:49:52.713Z,97980.22
2022-09-06T18:52:20.775Z,97993.06
2022-09-06T18:54:48.913Z,97980.19
2022-09-06T18:57:16.405Z,97987.63
2022-09-06T18:59:43.093Z,97992.69
2022-09-06T19:02:09.687Z,97994.84
2022-09-06T19:04:36.334Z,97989.84
2022-09-06T19:07:03.781Z,97986.75
2022-09-06T19:09:30.299Z,97989.47
2022-09-06T19:11:56.765Z,97984.84
2022-09-06T19:14:23.339Z,97977.84
2022-09-06T19:16:51.539Z,97985.25
2022-09-06T19:19:18.178Z,97973.31
2022-09-06T19:21:44.643Z,97978.69
2022-09-06T19:24:12.406Z,97964.34
2022-09-06T19:26:42.039Z,97965.44
2022-09-06T19:29:13.101Z,97948.34
2022-09-06T19:31:39.564Z,97968.91
2022-09-06T19:34:06.552Z,97967.75
2022-09-06T19:36:33.752Z,97975.66
2022-09-06T19:39:06.270Z,97965.53
2022-09-06T19:41:36.344Z,97964.78
2022-09-06T19:44:05.614Z,97959.97
2022-09-06T19:46:32.215Z,97952.47
2022-09-06T19:48:58.769Z,97948.28
2022-09-06T19:51:25.667Z,97942.38
2022-09-06T19:53:54.360Z,97932.91
2022-09-06T19:56:24.459Z,97938.66
2022-09-06T19:58:58.567Z,97933.47
2022-09-06T20:01:29.168Z,97939.38
2022-09-06T20:03:55.927Z,97940.09
2022-09-06T20:06:22.907Z,97933.28
2022-09-06T20:08:54.218Z,97931.06
2022-09-06T20:11:22.861Z,97936.47
2022-09-06T20:13:49.404Z,97944.91
2022-09-06T20:16:18.545Z,97940.50
2022-09-06T20:18:46.872Z,97938.09
2022-09-06T20:21:13.892Z,97933.63
2022-09-06T20:23:40.862Z,97936.56
2022-09-06T20:26:09.643Z,97938.59
2022-09-06T20:28:37.050Z,97940.69
2022-09-06T20:31:09.110Z,97933.69
2022-09-06T20:33:36.365Z,97939.66
2022-09-06T20:36:05.807Z,97938.78
2022-09-06T20:38:35.214Z,97933.53
2022-09-06T20:41:05.025Z,97921.50
2022-09-06T20:43:34.377Z,97931.81
2022-09-06T20:46:04.152Z,97930.06
2022-09-06T20:48:32.732Z,97935.97
2022-09-06T20:51:02.542Z,97926.13
2022-09-06T20:53:33.573Z,97929.78
2022-09-06T20:56:06.230Z,97924.53
2022-09-06T20:58:33.494Z,97933.81
2022-09-06T21:01:05.299Z,97928.84
2022-09-06T21:03:31.842Z,97931.97
2022-09-06T21:05:58.307Z,97936.78
2022-09-06T21:08:26.050Z,97929.28
2022-09-06T21:10:59.437Z,97931.97
2022-09-06T21:13:28.230Z,97942.16
2022-09-06T21:15:55.777Z,97941.91
2022-09-06T21:18:23.365Z,97937.19
2022-09-06T21:20:57.921Z,97951.94
2022-09-06T21:23:25.038Z,97954.25
2022-09-06T21:25:55.558Z,97946.72
2022-09-06T21:28:22.530Z,97957.63
2022-09-06T21:31:00.398Z,97958.88
2022-09-06T21:33:28.871Z,97969.56
2022-09-06T21:36:01.153Z,97968.19
2022-09-06T21:38:27.660Z,97964.22
2022-09-06T21:40:54.112Z,97964.66
2022-09-06T21:43:20.515Z,97963.84
2022-09-06T21:45:47.075Z,97953.25
2022-09-06T21:48:18.108Z,97948.69
2022-09-06T21:50:46.817Z,97941.81
2022-09-06T21:53:13.915Z,97955.06
2022-09-06T21:55:40.910Z,97949.50
2022-09-06T21:58:07.826Z,97945.41
2022-09-06T22:00:34.935Z,97934.91
2022-09-06T22:03:01.848Z,97934.91
2022-09-06T22:05:28.668Z,97923.66
2022-09-06T22:07:55.170Z,97946.09
2022-09-06T22:10:23.641Z,97941.75
2022-09-06T22:12:50.612Z,97947.22
2022-09-06T22:15:18.899Z,97941.59
2022-09-06T22:17:45.391Z,97947.66
2022-09-06T22:20:12.181Z,97940.94
2022-09-06T22:22:38.813Z,97924.16
2022-09-06T22:25:05.895Z,97923.09
2022-09-06T22:27:32.338Z,97924.03
2022-09-06T22:29:58.777Z,97909.13
2022-09-06T22:32:25.335Z,97912.84
2022-09-06T22:34:51.874Z,97919.13
2022-09-06T22:37:18.290Z,97917.47
2022-09-06T22:39:44.864Z,97905.28
2022-09-06T22:42:11.396Z,97913.41
2022-09-06T22:44:37.918Z,97903.19
2022-09-06T22:47:05.163Z,97898.59
2022-09-06T22:49:31.587Z,97892.25
2022-09-06T22:51:58.248Z,97882.25
2022-09-06T22:54:24.711Z,97884.03
2022-09-06T22:56:51.209Z,97898.16
2022-09-06T22:59:17.791Z,97897.78
2022-09-06T23:01:44.371Z,97878.34
2022-09-06T23:04:11.120Z,97883.47
2022-09-06T23:06:37.694Z,97882.31
2022-09-06T23:09:04.589Z,97874.78
2022-09-06T23:11:32.554Z,97809.44
2022-09-06T23:14:00.618Z,97859.19
2022-09-06T23:16:28.195Z,97856.78
2022-09-06T23:18:55.318Z,97874.31
2022-09-06T23:21:24.433Z,97894.34
2022-09-06T23:23:52.767Z,97893.53
2022-09-06T23:26:22.206Z,97895.25
2022-09-06T23:28:56.425Z,97886.03
2022-09-06T23:31:25.496Z,97880.56
2022-09-06T23:33:59.759Z,97862.75
2022-09-06T23:36:26.969Z,97855.84
2022-09-06T23:38:53.545Z,97876.78
2022-09-06T23:41:20.266Z,97894.91
2022-09-06T23:43:46.709Z,97892.50
2022-09-06T23:46:14.856Z,97907.50
2022-09-06T23:48:42.898Z,97909.84
2022-09-06T23:51:09.600Z,97922.56
2022-09-06T23:53:36.529Z,97921.13
2022-09-06T23:56:04.066Z,97939.44
2022-09-06T23:58:31.190Z,97955.31
